Time;durP1;ratioP1;P1;durP2;ratioP2;P2;SDS_P1;SDS_P2;PMS_P1;PMS_P2;Temp;Humidity;BMP_temperature;BMP_pressure;BME280_temperature;BME280_humidity;BME280_pressure;Samples;Min_cycle;Max_cycle;Signal;HPM_P1;HPM_P2
2021/07/04 00:00:40;;;;;;;;;9.33;8.67;;;;;21.91;59.87;100764.69;5055464;28;45995;-70
2021/07/04 00:03:06;;;;;;;;;9.25;7.75;;;;;21.91;59.94;100767.38;5054674;28;45365;-71
2021/07/04 00:05:38;;;;;;;;;13.75;11.25;;;;;21.92;59.67;100760.22;5055105;28;45605;-71
2021/07/04 00:08:04;;;;;;;;;16.75;13.50;;;;;21.91;59.77;100762.03;5055123;28;45431;-71
2021/07/04 00:10:35;;;;;;;;;10.25;10.25;;;;;21.90;60.03;100754.13;5054753;28;46616;-71
2021/07/04 00:13:01;;;;;;;;;14.00;11.25;;;;;21.89;60.09;100763.09;5054585;28;45382;-71
2021/07/04 00:15:29;;;;;;;;;16.25;12.50;;;;;21.88;60.00;100762.25;5054914;28;45568;-71
2021/07/04 00:17:55;;;;;;;;;10.00;9.25;;;;;21.87;60.12;100757.00;5054410;28;45282;-70
2021/07/04 00:20:23;;;;;;;;;7.67;6.33;;;;;21.86;60.00;100753.50;5054775;28;46055;-71
2021/07/04 00:22:54;;;;;;;;;6.67;6.33;;;;;21.86;60.00;100758.84;5054786;28;45516;-71
2021/07/04 00:25:20;;;;;;;;;7.33;6.33;;;;;21.87;59.54;100749.03;5054792;28;45283;-71
2021/07/04 00:27:46;;;;;;;;;8.67;5.00;;;;;21.87;59.91;100746.34;5055244;28;45761;-71
2021/07/04 00:30:13;;;;;;;;;11.33;8.33;;;;;21.88;60.06;100751.59;5054022;28;47043;-71
2021/07/04 00:32:39;;;;;;;;;10.33;8.33;;;;;21.84;59.89;100740.28;5054528;28;45351;-71
2021/07/04 00:35:07;;;;;;;;;7.33;7.33;;;;;21.84;59.75;100736.75;5054761;28;45549;-71
2021/07/04 00:37:32;;;;;;;;;11.00;9.00;;;;;21.84;59.89;100736.75;5054903;28;45564;-71
2021/07/04 00:39:58;;;;;;;;;9.00;9.00;;;;;21.82;60.00;100734.19;5054785;28;47181;-70
2021/07/04 00:42:24;;;;;;;;;10.00;9.00;;;;;21.82;60.16;100728.00;5054841;28;45386;-70
2021/07/04 00:44:51;;;;;;;;;8.00;8.00;;;;;21.80;60.00;100732.59;5054508;28;45299;-71
2021/07/04 00:47:16;;;;;;;;;40.75;34.25;;;;;21.77;59.98;100727.47;5054852;28;45366;-71
2021/07/04 00:49:42;;;;;;;;;20.25;17.00;;;;;21.75;60.38;100724.06;5053841;28;46890;-71
2021/07/04 00:52:08;;;;;;;;;55.25;44.25;;;;;21.73;60.16;100731.28;5054643;28;45339;-71
2021/07/04 00:54:34;;;;;;;;;45.25;38.25;;;;;21.70;60.30;100731.50;5055040;28;45408;-71
2021/07/04 00:57:00;;;;;;;;;68.00;50.50;;;;;21.66;60.48;100728.16;5054354;28;45359;-71
2021/07/04 00:59:26;;;;;;;;;57.00;47.25;;;;;21.64;60.25;100727.41;5053704;28;46763;-70
2021/07/04 01:01:57;;;;;;;;;51.50;40.50;;;;;21.62;60.60;100716.03;5054618;28;45435;-70
2021/07/04 01:04:22;;;;;;;;;52.50;43.75;;;;;21.60;60.50;100724.13;5038533;28;45532;-71
2021/07/04 01:06:47;;;;;;;;;50.25;39.50;;;;;21.59;60.54;100716.22;5050162;28;45612;-71
2021/07/04 01:09:13;;;;;;;;;52.25;41.00;;;;;21.58;60.75;100707.38;5053545;28;46326;-70
2021/07/04 01:11:39;;;;;;;;;54.75;44.00;;;;;21.59;60.81;100713.56;5054379;28;45479;-71
2021/07/04 01:14:04;;;;;;;;;54.00;43.25;;;;;21.58;60.92;100711.88;5054259;28;45422;-71
2021/07/04 01:16:31;;;;;;;;;47.25;36.50;;;;;21.58;60.78;100710.03;5053607;28;45372;-71
2021/07/04 01:18:56;;;;;;;;;53.75;39.25;;;;;21.59;60.89;100710.91;5053816;28;46556;-71
2021/07/04 01:21:24;;;;;;;;;53.75;43.25;;;;;21.58;60.61;100703.88;5054359;28;45537;-71
2021/07/04 01:23:50;;;;;;;;;42.75;35.00;;;;;21.59;60.53;100702.91;5054089;28;45491;-70
2021/07/04 01:26:16;;;;;;;;;41.00;37.25;;;;;21.58;60.48;100703.88;5053793;28;45385;-71
2021/07/04 01:28:41;;;;;;;;;42.50;35.75;;;;;21.56;60.64;100695.97;5053818;28;46943;-71
2021/07/04 01:31:07;;;;;;;;;47.75;35.75;;;;;21.56;60.39;100703.13;5054141;28;45636;-71
2021/07/04 01:33:33;;;;;;;;;45.25;35.00;;;;;21.54;60.48;100695.22;5054627;28;45312;-70
2021/07/04 01:35:59;;;;;;;;;44.50;34.50;;;;;21.53;60.89;100695.34;5054228;28;45469;-70
2021/07/04 01:38:24;;;;;;;;;38.25;31.00;;;;;21.50;61.13;100701.72;5053711;28;46994;-71
2021/07/04 01:40:50;;;;;;;;;26.00;25.25;;;;;21.49;60.89;100710.66;5054180;28;45467;-71
2021/07/04 01:43:15;;;;;;;;;33.50;28.00;;;;;21.50;60.70;100706.19;5054029;28;45304;-71
2021/07/04 01:45:41;;;;;;;;;33.75;30.50;;;;;21.48;61.14;100706.28;5054834;28;45360;-71
2021/07/04 01:48:08;;;;;;;;;25.25;23.75;;;;;21.46;61.34;100697.56;5053560;28;46145;-70
2021/07/04 01:50:39;;;;;;;;;24.75;21.25;;;;;21.46;60.80;100699.38;5052020;28;45881;-71
2021/07/04 01:53:04;;;;;;;;;20.50;20.50;;;;;21.46;61.00;100694.03;5053722;28;45339;-71
2021/07/04 01:55:31;;;;;;;;;19.25;18.50;;;;;21.45;60.94;100694.97;5053785;28;45378;-71
2021/07/04 01:57:56;;;;;;;;;11.00;10.75;;;;;21.43;60.99;100695.09;5053555;28;46103;-71
2021/07/04 02:00:25;;;;;;;;;13.00;11.50;;;;;21.40;60.81;100690.84;5054149;28;45480;-71
2021/07/04 02:02:53;;;;;;;;;16.75;14.50;;;;;21.40;60.98;100701.50;5056998;28;45385;-70
2021/07/04 02:05:20;;;;;;;;;17.25;16.00;;;;;21.38;60.91;100699.81;5057554;28;45499;-71
2021/07/04 02:07:45;;;;;;;;;15.00;15.00;;;;;21.37;60.81;100696.31;5057231;28;45458;-71
2021/07/04 02:10:48;;;;;;;;;14.00;13.00;;;;;21.35;60.75;100689.38;5057208;28;45311;-71
2021/07/04 02:13:14;;;;;;;;;14.50;13.75;;;;;21.36;60.88;100693.75;5051363;28;45549;-71
2021/07/04 02:15:41;;;;;;;;;10.50;8.50;;;;;21.34;61.23;100693.84;5057966;28;45313;-71
2021/07/04 02:18:11;;;;;;;;;11.75;10.00;;;;;21.35;60.87;100692.03;5057202;28;46170;-71
2021/07/04 02:20:39;;;;;;;;;13.00;12.00;;;;;21.37;61.15;100687.47;5057070;28;45355;-71
2021/07/04 02:23:08;;;;;;;;;8.00;8.00;;;;;21.40;61.08;100684.63;5057276;28;45499;-71
2021/07/04 02:25:40;;;;;;;;;19.75;13.25;;;;;21.42;60.96;100686.22;5056929;28;45325;-71
2021/07/04 02:28:07;;;;;;;;;11.75;11.75;;;;;21.43;61.10;100687.13;5056699;28;47129;-71
2021/07/04 02:30:34;;;;;;;;;12.25;12.25;;;;;21.42;61.12;100685.38;5055277;28;45319;-71
2021/07/04 02:33:02;;;;;;;;;16.75;15.75;;;;;21.41;61.22;100679.22;5057178;28;45469;-71
2021/07/04 02:35:29;;;;;;;;;10.00;10.00;;;;;21.42;61.55;100677.41;5057172;28;45421;-71
2021/07/04 02:37:55;;;;;;;;;10.25;9.50;;;;;21.42;61.45;100677.41;5057145;28;46216;-71
2021/07/04 02:40:22;;;;;;;;;12.00;10.25;;;;;21.41;61.43;100673.88;5057164;28;45796;-71
2021/07/04 02:42:47;;;;;;;;;9.50;8.75;;;;;21.41;61.74;100681.03;5057420;28;45435;-70
2021/07/04 02:45:13;;;;;;;;;12.25;10.00;;;;;21.37;61.76;100685.66;5056699;28;45731;-71
2021/07/04 02:47:38;;;;;;;;;13.75;9.50;;;;;21.35;61.65;100684.91;5056566;28;45712;-71
2021/07/04 02:50:06;;;;;;;;;7.00;7.00;;;;;21.35;61.89;100694.69;5057002;28;45629;-71
2021/07/04 02:52:31;;;;;;;;;9.50;9.25;;;;;21.35;61.86;100690.22;5057117;28;45390;-70
2021/07/04 02:54:56;;;;;;;;;9.00;6.75;;;;;21.36;62.12;100689.28;5056493;28;45457;-69
2021/07/04 02:57:22;;;;;;;;;12.00;8.75;;;;;21.37;61.94;100684.81;5057051;28;46056;-71
2021/07/04 02:59:47;;;;;;;;;9.00;9.00;;;;;21.37;62.01;100682.16;5055825;28;45257;-71
2021/07/04 03:02:12;;;;;;;;;10.00;9.75;;;;;21.35;62.07;100678.72;5056424;28;45388;-71
2021/07/04 03:04:38;;;;;;;;;9.00;8.00;;;;;21.34;61.91;100669.91;5056613;28;45221;-70
2021/07/04 03:07:03;;;;;;;;;7.75;7.75;;;;;21.32;61.77;100677.13;5056760;28;46048;-70
2021/07/04 03:09:29;;;;;;;;;8.75;8.75;;;;;21.31;61.60;100669.22;5056070;28;45273;-70
2021/07/04 03:11:56;;;;;;;;;8.25;8.25;;;;;21.27;61.83;100673.91;5056098;28;45638;-71
2021/07/04 03:14:22;;;;;;;;;8.50;7.25;;;;;21.27;61.78;100668.59;5055571;28;45435;-71
2021/07/04 03:16:48;;;;;;;;;10.00;7.50;;;;;21.25;62.04;100667.84;5056293;28;45967;-71
2021/07/04 03:19:14;;;;;;;;;8.50;7.50;;;;;21.29;61.88;100668.50;5056745;28;45339;-71
2021/07/04 03:21:39;;;;;;;;;12.25;11.00;;;;;21.30;61.87;100660.38;5057193;28;45365;-71
2021/07/04 03:24:04;;;;;;;;;9.75;9.50;;;;;21.30;61.87;100663.06;5055671;28;45469;-71
2021/07/04 03:26:30;;;;;;;;;7.25;7.25;;;;;21.30;61.98;100655.06;5056269;28;46224;-70
2021/07/04 03:28:55;;;;;;;;;9.25;9.25;;;;;21.29;61.67;100655.19;5056596;28;45756;-71
2021/07/04 03:31:20;;;;;;;;;6.25;6.00;;;;;21.27;61.80;100649.97;5040429;28;45346;-71
2021/07/04 03:33:46;;;;;;;;;5.75;5.75;;;;;21.25;62.00;100643.03;5057057;28;45288;-71
2021/07/04 03:36:11;;;;;;;;;6.50;6.00;;;;;21.20;62.46;100640.66;5055905;28;45315;-71
2021/07/04 03:38:36;;;;;;;;;6.25;6.25;;;;;21.18;61.97;100638.09;5055934;28;45410;-71
2021/07/04 03:41:02;;;;;;;;;7.50;5.50;;;;;21.15;62.46;100643.63;5056499;28;45464;-71
2021/07/04 03:43:27;;;;;;;;;5.75;5.75;;;;;21.12;62.43;100641.19;5055696;28;45288;-71
2021/07/04 03:45:53;;;;;;;;;6.00;6.00;;;;;21.12;62.71;100641.19;5056823;28;46432;-71
2021/07/04 03:48:18;;;;;;;;;6.75;6.50;;;;;21.13;62.35;100636.72;5056204;28;45362;-71
2021/07/04 03:50:44;;;;;;;;;4.00;4.00;;;;;21.13;62.67;100650.00;5056304;28;45455;-71
2021/07/04 03:53:10;;;;;;;;;6.00;6.00;;;;;21.12;62.06;100653.66;5055876;28;45617;-71
2021/07/04 03:55:35;;;;;;;;;5.50;5.00;;;;;21.12;62.09;100665.13;5055723;28;46313;-72
2021/07/04 03:58:01;;;;;;;;;5.50;4.50;;;;;21.07;62.92;100667.25;5055981;28;45381;-71
2021/07/04 04:00:26;;;;;;;;;6.75;6.75;;;;;20.97;62.79;100666.13;5056431;28;45471;-70
2021/07/04 04:02:52;;;;;;;;;8.50;7.25;;;;;20.91;62.80;100671.84;5055912;28;45425;-71
2021/07/04 04:05:18;;;;;;;;;5.75;5.75;;;;;20.84;63.09;100678.53;5055380;28;46961;-71
2021/07/04 04:07:43;;;;;;;;;4.75;4.75;;;;;20.77;63.44;100673.59;5055428;28;45474;-70
2021/07/04 04:10:10;;;;;;;;;4.00;4.00;;;;;20.69;63.73;100680.34;5055589;28;45818;-70
2021/07/04 04:12:35;;;;;;;;;4.67;4.67;;;;;20.66;64.01;100678.72;5056416;28;45379;-70
2021/07/04 04:15:01;;;;;;;;;5.50;4.50;;;;;20.64;64.65;100667.34;5055323;28;45813;-70
2021/07/04 04:17:30;;;;;;;;;1.67;1.67;;;;;20.61;63.53;100661.38;5055562;28;45489;-71
2021/07/04 04:19:55;;;;;;;;;3.00;1.00;;;;;20.60;63.01;100667.66;5055643;28;45394;-70
2021/07/04 04:22:21;;;;;;;;;1.00;1.00;;;;;20.57;61.51;100668.69;5039262;28;45325;-70
2021/07/04 04:24:47;;;;;;;;;0.33;0.33;;;;;20.43;61.28;100664.19;5055863;28;46003;-71
2021/07/04 04:27:13;;;;;;;;;2.00;0.00;;;;;20.34;61.37;100662.97;5055523;28;45394;-71
2021/07/04 04:29:39;;;;;;;;;1.00;0.00;;;;;20.31;60.68;100660.50;5055119;28;45754;-70
2021/07/04 04:32:05;;;;;;;;;1.00;0.00;;;;;20.27;60.78;100656.31;5055600;28;45375;-70
2021/07/04 04:34:30;;;;;;;;;0.00;0.00;;;;;20.28;60.81;100659.81;5055272;28;46536;-70
2021/07/04 04:36:56;;;;;;;;;0.00;0.00;;;;;20.27;61.14;100658.97;5055318;28;45437;-70
2021/07/04 04:39:21;;;;;;;;;2.00;1.00;;;;;20.24;60.88;100666.31;5055647;28;45345;-70
2021/07/04 04:41:48;;;;;;;;;2.00;1.00;;;;;20.12;61.09;100660.78;5055082;28;45379;-70
2021/07/04 04:44:14;;;;;;;;;2.00;2.00;;;;;19.98;62.35;100647.50;5055113;28;47073;-70
2021/07/04 04:46:39;;;;;;;;;0.00;0.00;;;;;19.90;63.04;100645.31;5055244;28;45457;-70
2021/07/04 04:49:05;;;;;;;;;2.00;1.00;;;;;19.89;64.05;100645.38;5055401;28;45366;-70
2021/07/04 04:51:30;;;;;;;;;1.00;1.00;;;;;19.90;64.63;100641.78;5055583;28;45549;-70
2021/07/04 04:53:58;;;;;;;;;1.00;1.00;;;;;19.92;64.17;100643.38;5054336;28;45394;-70
2021/07/04 04:56:23;;;;;;;;;3.33;2.67;;;;;19.96;64.45;100648.53;5054718;28;45544;-70
2021/07/04 04:58:49;;;;;;;;;1.00;1.00;;;;;20.00;64.28;100648.25;5053592;28;45555;-70
2021/07/04 05:01:14;;;;;;;;;3.00;2.00;;;;;20.05;64.63;100654.13;5053564;28;45277;-70
2021/07/04 05:03:39;;;;;;;;;3.67;2.00;;;;;20.12;64.94;100644.84;5055580;28;45319;-71
2021/07/04 05:06:05;;;;;;;;;3.00;3.00;;;;;20.17;64.64;100649.03;5054413;28;45304;-71
2021/07/04 05:08:30;;;;;;;;;1.67;1.00;;;;;20.22;64.81;100650.44;5054910;28;45317;-72
2021/07/04 05:10:57;;;;;;;;;4.00;2.67;;;;;20.23;64.84;100651.28;5054416;28;45429;-72
2021/07/04 05:13:23;;;;;;;;;2.67;2.67;;;;;20.25;65.29;100654.72;5054841;28;45357;-72
2021/07/04 05:15:48;;;;;;;;;5.00;3.67;;;;;20.27;65.54;100651.00;5054990;28;45513;-73
2021/07/04 05:18:13;;;;;;;;;3.67;1.00;;;;;20.32;65.49;100645.41;5054121;28;45532;-72
2021/07/04 05:20:39;;;;;;;;;3.00;3.00;;;;;20.33;65.91;100642.66;5054323;28;45391;-72
2021/07/04 05:23:04;;;;;;;;;2.00;2.00;;;;;20.35;66.39;100648.75;5054127;28;46203;-72
2021/07/04 05:25:29;;;;;;;;;3.00;3.00;;;;;20.35;65.97;100650.53;5052139;28;46150;-71
2021/07/04 05:27:55;;;;;;;;;4.25;3.75;;;;;20.35;66.34;100650.53;5054372;28;45406;-71
2021/07/04 05:30:20;;;;;;;;;3.33;3.33;;;;;20.35;66.29;100654.06;5054277;28;45351;-71
2021/07/04 05:32:46;;;;;;;;;5.00;4.00;;;;;20.35;66.31;100654.06;5053752;28;46625;-73
2021/07/04 05:35:11;;;;;;;;;5.25;4.75;;;;;20.35;66.59;100654.06;5053712;28;45406;-73
2021/07/04 05:37:37;;;;;;;;;6.00;6.00;;;;;20.33;66.25;100653.28;5051829;28;45430;-74
2021/07/04 05:40:14;;;;;;;;;6.00;4.50;;;;;20.35;66.39;100651.41;5054132;28;45525;-75
2021/07/04 05:42:44;;;;;;;;;4.50;4.50;;;;;20.33;66.11;100650.63;5052605;28;46465;-73
2021/07/04 05:45:14;;;;;;;;;5.00;5.00;;;;;20.31;66.04;100649.88;5053272;28;45445;-72
2021/07/04 05:47:39;;;;;;;;;5.25;4.00;;;;;20.33;66.17;100641.78;5050772;28;45735;-71
2021/07/04 05:50:05;;;;;;;;;6.00;4.75;;;;;20.41;66.40;100638.66;5052957;28;45426;-71
2021/07/04 05:52:31;;;;;;;;;4.67;3.67;;;;;20.41;65.73;100631.53;5052888;28;45669;-71
2021/07/04 05:54:57;;;;;;;;;4.00;4.00;;;;;20.45;65.75;100638.38;5053561;28;45512;-71
2021/07/04 05:57:22;;;;;;;;;4.33;4.00;;;;;20.47;65.12;100636.44;5051264;28;45465;-73
2021/07/04 05:59:48;;;;;;;;;7.50;5.00;;;;;20.50;64.67;100638.94;5048532;28;45399;-72
2021/07/04 06:02:13;;;;;;;;;3.00;3.00;;;;;20.50;64.32;100633.63;5053209;28;47334;-72
2021/07/04 06:04:39;;;;;;;;;6.25;6.00;;;;;20.46;64.88;100637.41;5052714;28;45477;-72
2021/07/04 06:07:04;;;;;;;;;3.00;3.00;;;;;20.44;64.71;100641.13;5053194;28;45678;-72
2021/07/04 06:09:30;;;;;;;;;3.75;3.75;;;;;20.45;64.47;100642.81;5053366;28;45438;-72
2021/07/04 06:11:55;;;;;;;;;5.00;3.75;;;;;20.48;64.60;100658.59;5053025;28;46168;-72
2021/07/04 06:14:20;;;;;;;;;4.75;4.75;;;;;20.48;64.56;100647.97;5052925;28;45383;-72
2021/07/04 06:16:46;;;;;;;;;5.00;4.00;;;;;20.49;64.54;100647.84;5051573;28;45854;-72
2021/07/04 06:19:11;;;;;;;;;5.00;3.75;;;;;20.51;64.26;100645.94;5052764;28;46133;-72
2021/07/04 06:21:36;;;;;;;;;4.50;4.50;;;;;20.53;63.86;100645.88;5053407;28;45663;-71
2021/07/04 06:24:02;;;;;;;;;3.75;3.75;;;;;20.52;64.06;100650.34;5052823;28;45357;-71
2021/07/04 06:26:27;;;;;;;;;4.50;4.50;;;;;20.52;64.05;100653.00;5051665;28;45319;-70
2021/07/04 06:28:53;;;;;;;;;4.67;3.00;;;;;20.55;64.12;100659.91;5052384;28;45404;-70
2021/07/04 06:31:18;;;;;;;;;4.25;3.25;;;;;20.55;64.12;100658.16;5052749;28;49577;-72
2021/07/04 06:33:46;;;;;;;;;5.00;4.00;;;;;20.54;64.08;100659.03;5052695;28;45316;-71
2021/07/04 06:36:11;;;;;;;;;4.75;4.75;;;;;20.55;63.97;100657.25;5052556;28;45322;-71
2021/07/04 06:38:37;;;;;;;;;3.67;3.00;;;;;20.49;63.54;100654.97;5050722;28;45390;-71
2021/07/04 06:41:02;;;;;;;;;3.50;3.50;;;;;20.44;63.79;100654.41;5046751;28;47352;-71
2021/07/04 06:43:28;;;;;;;;;3.00;3.00;;;;;20.42;64.03;100654.50;5052527;28;45568;-70
2021/07/04 06:45:53;;;;;;;;;4.00;4.00;;;;;20.43;64.49;100653.56;5053507;28;45301;-71
2021/07/04 06:48:19;;;;;;;;;3.00;3.00;;;;;20.44;64.31;100652.59;5052575;28;45290;-71
2021/07/04 06:50:44;;;;;;;;;6.00;6.00;;;;;20.45;64.37;100657.00;5054242;28;45891;-71
2021/07/04 06:53:09;;;;;;;;;3.33;3.33;;;;;20.51;64.19;100651.25;5055542;28;45239;-71
2021/07/04 06:55:35;;;;;;;;;4.67;4.00;;;;;20.55;64.10;100659.91;5056031;28;45665;-71
2021/07/04 06:58:00;;;;;;;;;3.00;3.00;;;;;20.57;64.42;100655.41;5056685;28;45382;-71
2021/07/04 07:00:27;;;;;;;;;5.00;4.75;;;;;20.58;63.72;100647.31;5056382;28;45647;-72
2021/07/04 07:02:53;;;;;;;;;3.00;3.00;;;;;20.61;63.71;100648.06;5055593;28;45394;-72
2021/07/04 07:05:19;;;;;;;;;5.00;4.33;;;;;20.64;64.08;100651.41;5056253;28;45315;-72
2021/07/04 07:07:45;;;;;;;;;3.00;3.00;;;;;20.68;63.75;100650.22;5054701;28;46102;-72
2021/07/04 07:10:13;;;;;;;;;4.00;4.00;;;;;20.72;63.28;100643.78;5055187;28;46360;-73
2021/07/04 07:12:39;;;;;;;;;6.00;4.00;;;;;20.74;63.52;100641.88;5055605;28;45409;-73
2021/07/04 07:15:06;;;;;;;;;4.00;4.00;;;;;20.79;63.28;100649.56;5055428;28;45456;-74
2021/07/04 07:17:32;;;;;;;;;3.00;3.00;;;;;20.80;63.09;100645.94;5054730;28;45320;-74
2021/07/04 07:19:57;;;;;;;;;3.67;3.67;;;;;20.88;63.02;100642.75;5055381;28;46020;-74
2021/07/04 07:22:23;;;;;;;;;5.33;5.00;;;;;20.98;63.40;100643.91;5055805;28;45469;-74
2021/07/04 07:24:49;;;;;;;;;4.33;4.33;;;;;21.05;62.49;100647.88;5055158;28;45445;-73
2021/07/04 07:27:14;;;;;;;;;4.33;4.33;;;;;21.05;63.01;100642.53;5055503;28;45644;-74
2021/07/04 07:29:41;;;;;;;;;3.00;3.00;;;;;21.05;62.56;100650.53;5055400;28;45997;-73
2021/07/04 07:32:07;;;;;;;;;3.75;3.75;;;;;21.04;62.54;100651.47;5054903;28;45577;-74
2021/07/04 07:34:32;;;;;;;;;6.00;5.00;;;;;21.05;62.74;100647.03;5055506;28;45406;-73
2021/07/04 07:36:58;;;;;;;;;5.00;5.00;;;;;21.04;62.33;100645.28;5055284;28;45411;-74
2021/07/04 07:39:23;;;;;;;;;3.00;3.00;;;;;21.04;62.13;100654.13;5054851;28;47200;-74
2021/07/04 07:41:49;;;;;;;;;3.00;3.00;;;;;21.14;62.14;100662.34;5055030;28;45277;-74
2021/07/04 07:44:15;;;;;;;;;2.25;2.25;;;;;21.31;62.19;100664.78;5055047;28;45756;-73
2021/07/04 07:46:41;;;;;;;;;4.00;4.00;;;;;21.46;61.89;100670.06;5054738;28;45342;-73
2021/07/04 07:49:07;;;;;;;;;3.00;3.00;;;;;21.57;61.81;100670.19;5054997;28;47335;-73
2021/07/04 07:51:33;;;;;;;;;2.33;2.00;;;;;21.61;61.32;100671.69;5055164;28;45457;-73
2021/07/04 07:53:58;;;;;;;;;3.00;3.00;;;;;21.58;61.32;100677.22;5054921;28;45493;-73
2021/07/04 07:56:24;;;;;;;;;3.00;3.00;;;;;21.50;61.00;100676.88;5054959;28;45346;-74
2021/07/04 07:58:50;;;;;;;;;5.00;3.00;;;;;21.45;61.02;100669.19;5054330;28;46126;-73
2021/07/04 08:01:17;;;;;;;;;3.67;1.67;;;;;21.40;61.01;100671.31;5054789;28;45364;-73
2021/07/04 08:03:43;;;;;;;;;3.00;3.00;;;;;21.35;61.18;100665.41;5055897;28;45384;-73
2021/07/04 08:06:09;;;;;;;;;3.00;3.00;;;;;21.31;61.34;100674.56;5053155;28;45534;-74
2021/07/04 08:08:35;;;;;;;;;4.00;4.00;;;;;21.23;60.93;100674.22;5053684;28;45383;-74
2021/07/04 08:11:00;;;;;;;;;1.33;1.33;;;;;21.10;61.42;100677.69;5054147;28;45491;-73
2021/07/04 08:13:26;;;;;;;;;3.00;2.33;;;;;20.98;61.26;100675.84;5054868;28;45308;-73
2021/07/04 08:15:51;;;;;;;;;3.00;3.00;;;;;20.90;61.37;100675.44;5055427;28;45502;-73
2021/07/04 08:18:17;;;;;;;;;3.00;3.00;;;;;20.85;62.31;100683.72;5054606;28;46562;-72
2021/07/04 08:20:42;;;;;;;;;4.00;2.00;;;;;20.81;61.50;100686.69;5054898;28;45418;-73
2021/07/04 08:23:08;;;;;;;;;2.00;2.00;;;;;20.88;61.70;100667.59;5054440;28;45402;-75
2021/07/04 08:25:34;;;;;;;;;2.00;2.00;;;;;21.08;61.34;100655.63;5054540;28;49666;-78
2021/07/04 08:28:00;;;;;;;;;4.00;2.67;;;;;21.24;60.83;100651.94;5054493;28;47127;-79
2021/07/04 08:30:25;;;;;;;;;4.00;4.00;;;;;21.40;60.38;100650.00;5054314;28;45364;-80
2021/07/04 08:32:50;;;;;;;;;2.33;2.33;;;;;21.53;59.78;100634.09;5053881;28;45703;-82
2021/07/04 08:35:16;;;;;;;;;1.67;1.33;;;;;21.66;59.45;100618.94;5054641;28;45708;-78
2021/07/04 08:37:41;;;;;;;;;1.00;1.00;;;;;21.78;59.25;100618.09;5054279;28;46196;-79
2021/07/04 08:40:08;;;;;;;;;3.00;2.00;;;;;21.92;59.14;100616.31;5054459;28;45276;-81
2021/07/04 08:42:34;;;;;;;;;3.00;3.00;;;;;21.94;58.79;100609.91;5054638;28;45343;-82
2021/07/04 08:45:01;;;;;;;;;2.00;2.00;;;;;21.98;60.24;100605.22;5054459;28;45445;-80
2021/07/04 08:47:27;;;;;;;;;4.67;3.00;;;;;22.05;59.14;100611.84;5052323;28;47402;-80
2021/07/04 08:49:56;;;;;;;;;2.00;2.00;;;;;22.18;58.66;100614.47;5054411;28;45408;-80
2021/07/04 08:52:21;;;;;;;;;3.00;2.00;;;;;22.35;57.84;100637.31;5054540;28;45469;-78
2021/07/04 08:54:47;;;;;;;;;2.00;2.00;;;;;22.40;57.87;100636.00;5053081;28;45370;-79
2021/07/04 08:57:15;;;;;;;;;2.50;2.50;;;;;22.41;57.25;100635.06;5053338;28;46912;-79
2021/07/04 08:59:42;;;;;;;;;1.33;1.33;;;;;22.41;56.79;100634.22;5055876;28;45430;-83
2021/07/04 09:02:12;;;;;;;;;1.67;1.67;;;;;22.41;56.32;100628.88;5059252;28;45520;-81
2021/07/04 09:04:39;;;;;;;;;2.00;2.00;;;;;22.35;56.20;100632.81;5054137;28;45360;-78
2021/07/04 09:07:05;;;;;;;;;1.67;1.67;;;;;22.27;56.06;100629.84;5054569;28;46106;-81
2021/07/04 09:09:34;;;;;;;;;1.67;1.00;;;;;22.18;55.86;100636.66;5054234;28;45398;-75
2021/07/04 09:12:08;;;;;;;;;1.00;1.00;;;;;22.19;56.75;100634.81;5051990;28;45439;-73
2021/07/04 09:14:48;;;;;;;;;2.00;2.00;;;;;22.22;56.89;100634.66;5053493;28;45443;-74
2021/07/04 09:17:16;;;;;;;;;0.67;0.67;;;;;22.32;55.54;100632.19;5053543;28;46325;-80
2021/07/04 09:19:52;;;;;;;;;1.00;1.00;;;;;22.38;55.44;100635.28;5053336;28;45451;-73
2021/07/04 09:22:26;;;;;;;;;1.00;1.00;;;;;22.56;55.26;100635.75;5053776;28;45485;-75
2021/07/04 09:24:51;;;;;;;;;2.00;1.00;;;;;22.69;54.17;100635.72;5050242;28;45508;-75
2021/07/04 09:27:17;;;;;;;;;2.00;1.00;;;;;22.72;53.84;100637.34;5052444;28;45996;-75
2021/07/04 09:29:48;;;;;;;;;1.33;1.33;;;;;22.79;53.71;100633.25;5052973;28;45451;-75
2021/07/04 09:32:32;;;;;;;;;1.33;1.33;;;;;22.83;52.54;100618.69;5053156;28;45468;-74
2021/07/04 09:35:10;;;;;;;;;1.00;1.00;;;;;22.93;53.45;100626.88;5053166;28;45582;-74
2021/07/04 09:37:39;;;;;;;;;4.00;1.00;;;;;23.12;52.08;100613.94;5053177;28;46388;-74
2021/07/04 09:40:25;;;;;;;;;1.00;0.67;;;;;23.43;50.99;100609.78;5053575;28;45389;-75
2021/07/04 09:43:04;;;;;;;;;2.00;1.00;;;;;23.61;51.73;100604.84;5048833;28;45316;-76
2021/07/04 09:45:59;;;;;;;;;1.00;0.00;;;;;23.70;48.76;100608.63;5053515;28;45552;-76
2021/07/04 09:48:28;;;;;;;;;1.33;1.00;;;;;23.77;48.36;100603.69;5053100;28;46265;-74
2021/07/04 09:50:55;;;;;;;;;0.00;0.00;;;;;23.85;48.69;100604.78;5052907;28;45547;-75
2021/07/04 09:53:22;;;;;;;;;0.00;0.00;;;;;23.92;49.34;100600.66;5053519;28;45542;-76
2021/07/04 09:55:51;;;;;;;;;0.67;0.67;;;;;24.07;49.01;100598.59;5052359;28;45395;-76
2021/07/04 09:58:17;;;;;;;;;2.67;0.00;;;;;24.22;47.41;100601.91;5052235;28;46367;-77
2021/07/04 10:00:45;;;;;;;;;0.00;0.00;;;;;24.37;48.31;100594.47;5053181;28;45453;-76
2021/07/04 10:03:12;;;;;;;;;2.00;1.00;;;;;24.61;47.38;100596.16;5052246;28;45358;-77
2021/07/04 10:05:40;;;;;;;;;1.00;1.00;;;;;24.66;46.05;100601.97;5052689;28;45601;-77
2021/07/04 10:08:28;;;;;;;;;1.00;1.00;;;;;24.56;47.14;100591.19;5053888;28;46916;-81
2021/07/04 10:11:09;;;;;;;;;2.00;1.00;;;;;24.54;47.71;100598.47;5051772;28;45299;-83
2021/07/04 10:13:39;;;;;;;;;0.00;0.00;;;;;24.46;47.58;100593.75;5037689;28;45310;-82
2021/07/04 10:16:06;;;;;;;;;1.67;0.67;;;;;24.28;47.50;100592.50;5051925;28;45331;-80
2021/07/04 10:18:32;;;;;;;;;1.00;1.00;;;;;24.08;47.53;100594.97;5052118;28;46277;-79
2021/07/04 10:20:58;;;;;;;;;0.67;0.00;;;;;24.01;48.90;100590.22;5050209;28;45513;-83
2021/07/04 10:28:45;;;;;;;;;2.00;2.00;;;;;24.35;48.86;100591.03;5483596;22;46498;-82
2021/07/04 10:31:19;;;;;;;;;1.00;1.00;;;;;24.51;48.01;100582.69;5053878;28;45386;-79
2021/07/04 10:33:45;;;;;;;;;2.00;2.00;;;;;24.55;48.32;100584.97;5055578;28;45420;-76
2021/07/04 10:36:22;;;;;;;;;1.00;1.00;;;;;24.72;48.42;100583.59;5055344;28;45573;-76
2021/07/04 10:38:54;;;;;;;;;1.00;1.00;;;;;24.93;48.55;100583.66;5054245;28;46397;-76
2021/07/04 10:41:32;;;;;;;;;1.00;1.00;;;;;25.12;47.64;100577.59;5054736;28;45357;-76
2021/07/04 10:43:57;;;;;;;;;0.67;0.67;;;;;25.15;45.35;100589.91;5055565;28;45435;-76
2021/07/04 10:46:44;;;;;;;;;1.00;0.00;;;;;25.15;44.84;100584.53;5055399;28;45336;-75
2021/07/04 10:49:18;;;;;;;;;10.00;10.00;;;;;25.72;45.19;100587.75;5044691;28;46397;-76
2021/07/04 10:52:02;;;;;;;;;2.00;2.00;;;;;26.09;44.35;100573.84;5055912;28;45417;-78
2021/07/04 10:54:50;;;;;;;;;10.75;9.75;;;;;26.35;43.87;100569.69;5055563;28;45449;-78
2021/07/04 10:57:16;;;;;;;;;4.67;4.67;;;;;26.60;43.26;100564.81;5055451;28;47848;-77
2021/07/04 11:00:03;;;;;;;;;4.67;2.67;;;;;26.82;42.78;100564.59;5054972;28;46339;-77
2021/07/04 11:02:48;;;;;;;;;8.33;7.00;;;;;26.96;42.64;100557.06;5055315;28;45520;-77
2021/07/04 11:05:41;;;;;;;;;2.00;2.00;;;;;26.73;42.28;100557.38;5054894;28;45556;-77
2021/07/04 11:08:31;;;;;;;;;13.00;13.00;;;;;26.14;42.43;100559.03;5048252;28;45498;-78
2021/07/04 11:11:07;;;;;;;;;4.00;3.33;;;;;25.57;48.58;100579.19;5054780;28;46362;-77
2021/07/04 11:13:42;;;;;;;;;4.33;1.67;;;;;24.65;55.83;100579.72;5040151;28;45443;-80
2021/07/04 11:16:12;;;;;;;;;2.33;2.33;;;;;24.22;52.26;100572.47;5055739;28;45292;-78
2021/07/04 11:18:42;;;;;;;;;0.00;0.00;;;;;24.24;49.68;100575.88;5055587;28;46344;-80
2021/07/04 11:21:09;;;;;;;;;1.67;1.67;;;;;24.41;49.46;100569.16;5047501;28;45437;-82
2021/07/04 11:23:34;;;;;;;;;1.00;1.00;;;;;24.73;48.27;100563.03;5040953;28;45492;-81
2021/07/04 11:26:10;;;;;;;;;1.33;1.33;;;;;25.37;47.30;100551.44;5037123;28;45336;-85
2021/07/04 11:28:45;;;;;;;;;1.67;1.67;;;;;26.03;47.22;100545.75;5054534;28;45449;-79